ΕΜΥ, Εθνική Μετεωρολογική Υπηρεσία - Δελτία Καιρού, Προγνώσεις

ΑΕΡΟΝΑΥΤΙΛΙΑ

GREEK AIRPORTS CODES

LGAV 061750Z VRB01KT 9999 FEW030 09/05 Q1025 RMK FEW100 SCT180 NOSIG=

EUROPEAN AIRPORTS CODES

LFPO 061700Z 21013KT 4000 -RA BR BKN006 07/06 Q1013=